Time;durP1;ratioP1;P1;durP2;ratioP2;P2;SDS_P1;SDS_P2;PMS_P1;PMS_P2;Temp;Humidity;BMP_temperature;BMP_pressure;BME280_temperature;BME280_humidity;BME280_pressure;Samples;Min_cycle;Max_cycle;Signal;HPM_P1;HPM_P2
2022/04/04 00:01:29;;;;;;;6.70;5.05;;;4.50;61.40;;;;;;5058360;28;20032;-77
2022/04/04 00:03:54;;;;;;;6.82;5.63;;;4.40;62.40;;;;;;5071182;28;20029;-77
2022/04/04 00:06:20;;;;;;;9.32;6.60;;;4.40;61.80;;;;;;5036978;28;20076;-77
2022/04/04 00:08:46;;;;;;;9.57;6.72;;;4.40;61.20;;;;;;5037067;28;20122;-77
2022/04/04 00:11:12;;;;;;;6.55;5.82;;;4.40;60.80;;;;;;5038172;28;20029;-77
2022/04/04 00:13:38;;;;;;;8.77;6.85;;;4.50;60.60;;;;;;5042821;28;20383;-77
2022/04/04 00:16:07;;;;;;;11.57;6.85;;;4.40;60.60;;;;;;5058276;28;20064;-77
2022/04/04 00:18:34;;;;;;;10.55;6.38;;;4.40;61.30;;;;;;5057798;28;20017;-77
2022/04/04 00:21:00;;;;;;;8.38;6.32;;;4.20;62.20;;;;;;5056924;28;20033;-77
2022/04/04 00:23:26;;;;;;;8.10;6.18;;;4.30;61.60;;;;;;5047655;28;20025;-77
2022/04/04 00:25:52;;;;;;;7.70;5.60;;;4.30;61.80;;;;;;5053215;28;20079;-77
2022/04/04 00:28:18;;;;;;;9.70;6.50;;;4.20;62.30;;;;;;5037739;28;20471;-77
2022/04/04 00:30:43;;;;;;;17.90;7.65;;;4.20;62.40;;;;;;5053421;28;20057;-77
2022/04/04 00:33:09;;;;;;;24.92;10.82;;;4.30;62.30;;;;;;5037943;28;20083;-77
2022/04/04 00:35:36;;;;;;;22.65;10.90;;;4.20;62.30;;;;;;5037687;28;20443;-77
2022/04/04 00:38:03;;;;;;;18.52;9.77;;;4.20;62.00;;;;;;5069799;28;20025;-77
2022/04/04 00:40:30;;;;;;;18.98;9.25;;;4.20;61.50;;;;;;5037630;28;20109;-77
2022/04/04 00:42:56;;;;;;;11.57;8.00;;;4.20;61.50;;;;;;5036562;28;20099;-77
2022/04/04 00:45:22;;;;;;;12.75;8.02;;;4.20;61.30;;;;;;5037776;28;20036;-77
2022/04/04 00:47:48;;;;;;;15.88;8.00;;;4.20;61.30;;;;;;5042272;28;20021;-77
2022/04/04 00:50:13;;;;;;;11.85;8.27;;;4.20;61.90;;;;;;5036304;28;20026;-77
2022/04/04 00:52:39;;;;;;;15.13;7.95;;;4.10;62.90;;;;;;5037201;28;20579;-77
2022/04/04 00:55:09;;;;;;;11.85;7.30;;;4.10;62.40;;;;;;5042600;28;20560;-77
2022/04/04 00:57:38;;;;;;;12.75;7.65;;;4.00;62.60;;;;;;5056248;28;20025;-77
2022/04/04 01:00:09;;;;;;;14.20;7.45;;;4.00;61.80;;;;;;5054248;28;20102;-77
2022/04/04 01:02:35;;;;;;;;;;;4.10;61.80;;;;;;5037830;28;20021;-77
2022/04/04 01:05:01;;;;;;;10.48;7.78;;;4.10;61.60;;;;;;5036101;28;19923;-77
2022/04/04 01:07:26;;;;;;;13.27;7.57;;;4.20;61.00;;;;;;5035968;28;20034;-77
2022/04/04 01:09:52;;;;;;;12.50;7.15;;;4.20;61.30;;;;;;5069171;28;20420;-77
2022/04/04 01:12:21;;;;;;;11.05;6.75;;;4.10;61.40;;;;;;5035530;28;20029;-77
2022/04/04 01:14:48;;;;;;;9.35;6.90;;;4.10;61.50;;;;;;5037289;28;20018;-77
2022/04/04 01:17:18;;;;;;;10.75;7.35;;;3.90;62.30;;;;;;5037057;28;20026;-76
2022/04/04 01:19:45;;;;;;;11.57;8.23;;;3.90;62.30;;;;;;5037047;28;20380;-77
2022/04/04 01:22:13;;;;;;;12.07;8.07;;;3.90;62.80;;;;;;5035880;28;20063;-77
2022/04/04 01:24:39;;;;;;;13.05;8.23;;;3.80;63.30;;;;;;5042273;28;20052;-77
2022/04/04 01:27:09;;;;;;;12.63;7.90;;;3.80;62.60;;;;;;5056628;28;20041;-77
2022/04/04 01:29:36;;;;;;;9.77;7.20;;;3.80;63.00;;;;;;5053352;28;20028;-77
2022/04/04 01:32:03;;;;;;;11.63;7.22;;;3.70;63.70;;;;;;5035420;28;20029;-77
2022/04/04 01:34:29;;;;;;;9.13;6.70;;;3.70;63.30;;;;;;5040095;28;20025;-77
2022/04/04 01:36:55;;;;;;;11.95;7.25;;;3.70;64.10;;;;;;5056858;28;20040;-77
2022/04/04 01:39:22;;;;;;;12.55;7.38;;;3.70;63.60;;;;;;5056662;28;20029;-77
2022/04/04 01:41:47;;;;;;;13.77;7.72;;;3.70;64.30;;;;;;5056476;28;20039;-77
2022/04/04 01:44:13;;;;;;;11.98;7.80;;;3.60;64.00;;;;;;5046393;28;20037;-77
2022/04/04 01:46:39;;;;;;;8.45;7.15;;;3.60;63.90;;;;;;5036315;28;20044;-76
2022/04/04 01:49:06;;;;;;;9.73;6.90;;;3.60;64.10;;;;;;5056351;28;20100;-76
2022/04/04 01:51:35;;;;;;;11.75;8.05;;;3.60;63.20;;;;;;5056604;28;20395;-76
2022/04/04 01:54:01;;;;;;;13.15;7.60;;;3.50;64.80;;;;;;5050933;28;20075;-76
2022/04/04 01:56:27;;;;;;;12.13;8.27;;;3.50;64.10;;;;;;5035005;28;20033;-76
2022/04/04 01:58:53;;;;;;;12.07;8.90;;;3.40;65.30;;;;;;5037164;28;20025;-77
2022/04/04 02:01:22;;;;;;;14.82;7.60;;;3.50;64.20;;;;;;5048447;28;20091;-77
2022/04/04 02:03:50;;;;;;;9.68;8.25;;;3.50;64.00;;;;;;5036197;28;20438;-77
2022/04/04 02:06:18;;;;;;;10.90;8.00;;;3.50;64.20;;;;;;5040592;28;20029;-77
2022/04/04 02:08:44;;;;;;;9.93;8.38;;;3.50;64.50;;;;;;5056073;28;20079;-77
2022/04/04 02:11:13;;;;;;;15.27;9.20;;;3.50;64.80;;;;;;5041635;28;20029;-77
2022/04/04 02:13:42;;;;;;;13.98;9.18;;;3.50;64.90;;;;;;5035893;28;20056;-77
2022/04/04 02:16:08;;;;;;;10.07;8.02;;;3.50;64.80;;;;;;5035970;28;20022;-77
2022/04/04 02:18:37;;;;;;;10.77;8.18;;;3.50;63.80;;;;;;5035846;28;20485;-77
2022/04/04 02:21:04;;;;;;;15.43;9.73;;;3.50;64.30;;;;;;5036145;28;20484;-77
2022/04/04 02:23:29;;;;;;;14.18;10.23;;;3.50;64.40;;;;;;5036166;28;20565;-77
2022/04/04 02:25:56;;;;;;;14.10;9.95;;;3.40;65.00;;;;;;5035415;28;20126;-77
2022/04/04 02:28:22;;;;;;;15.93;9.52;;;3.40;64.30;;;;;;5035714;28;20046;-77
2022/04/04 02:30:49;;;;;;;13.82;9.63;;;3.40;64.90;;;;;;5034354;28;20033;-77
2022/04/04 02:33:16;;;;;;;15.38;9.80;;;3.40;64.80;;;;;;5035659;28;20029;-77
2022/04/04 02:35:42;;;;;;;10.70;9.23;;;3.40;65.40;;;;;;5047891;28;20029;-77
2022/04/04 02:38:07;;;;;;;14.70;10.13;;;3.40;65.20;;;;;;5055706;28;20051;-77
2022/04/04 02:40:33;;;;;;;12.73;9.55;;;3.40;64.80;;;;;;5055446;28;20081;-77
2022/04/04 02:43:00;;;;;;;12.50;9.45;;;3.30;65.00;;;;;;5034425;28;20034;-77
2022/04/04 02:45:26;;;;;;;10.55;9.18;;;3.20;65.10;;;;;;5035463;28;20025;-77
2022/04/04 02:47:52;;;;;;;14.55;10.32;;;3.20;66.10;;;;;;5045487;28;20032;-76
2022/04/04 02:50:17;;;;;;;12.75;9.07;;;3.20;66.10;;;;;;5052090;28;20029;-76
2022/04/04 02:52:44;;;;;;;13.82;9.10;;;3.10;65.80;;;;;;5035334;28;20028;-76
2022/04/04 02:57:56;;;;;;;14.40;9.18;;;3.10;65.40;;;;;;5026380;28;20052;-77
2022/04/04 03:00:25;;;;;;;14.18;9.68;;;3.20;64.40;;;;;;5055173;28;20032;-77
2022/04/04 03:02:52;;;;;;;15.73;9.20;;;3.20;64.50;;;;;;5054967;28;20049;-77
2022/04/04 03:05:18;;;;;;;10.38;8.18;;;3.20;64.50;;;;;;5055219;28;20024;-77
2022/04/04 03:07:45;;;;;;;10.23;8.75;;;3.10;64.80;;;;;;5046202;28;20036;-77
2022/04/04 03:10:12;;;;;;;12.45;10.10;;;3.00;65.10;;;;;;5035010;28;20467;-77
2022/04/04 03:12:41;;;;;;;10.93;8.77;;;2.90;65.70;;;;;;5035200;28;20021;-77
2022/04/04 03:15:11;;;;;;;16.63;8.13;;;3.00;65.50;;;;;;5033802;28;20104;-76
2022/04/04 03:17:39;;;;;;;13.33;9.03;;;3.00;65.50;;;;;;5034968;28;20048;-76
2022/04/04 03:20:09;;;;;;;12.18;8.65;;;2.90;65.20;;;;;;5034789;28;20614;-76
2022/04/04 03:22:40;;;;;;;10.82;8.60;;;3.00;65.60;;;;;;5035097;28;20147;-77
2022/04/04 03:25:08;;;;;;;15.30;9.00;;;3.00;64.90;;;;;;5034819;28;20040;-77
2022/04/04 03:27:35;;;;;;;9.55;7.85;;;3.00;64.90;;;;;;5034664;28;20424;-77
2022/04/04 03:30:02;;;;;;;14.40;8.35;;;3.00;65.10;;;;;;5034609;28;20053;-76
2022/04/04 03:32:28;;;;;;;12.77;9.00;;;3.00;65.00;;;;;;5035032;28;20022;-77
2022/04/04 03:34:53;;;;;;;11.73;8.57;;;2.90;64.70;;;;;;5034929;28;20104;-76
2022/04/04 03:37:19;;;;;;;12.63;9.95;;;2.80;65.30;;;;;;5034648;28;21663;-77
2022/04/04 03:39:45;;;;;;;12.10;9.40;;;2.80;65.70;;;;;;5034550;28;20088;-77
2022/04/04 03:42:11;;;;;;;12.77;9.68;;;2.70;65.80;;;;;;5034791;28;20022;-76
2022/04/04 03:44:36;;;;;;;12.13;9.10;;;2.80;65.80;;;;;;5033523;28;20490;-77
2022/04/04 03:47:02;;;;;;;11.07;9.18;;;2.80;65.70;;;;;;5036499;28;20033;-76
2022/04/04 03:49:28;;;;;;;14.45;9.20;;;2.80;65.60;;;;;;5054549;28;20025;-76
2022/04/04 03:51:54;;;;;;;13.02;9.57;;;2.80;65.70;;;;;;5054523;28;20029;-76
2022/04/04 03:54:20;;;;;;;9.85;8.82;;;2.80;65.10;;;;;;5053593;28;20013;-76
2022/04/04 03:56:46;;;;;;;13.65;9.82;;;2.80;65.40;;;;;;5033014;28;20029;-76
2022/04/04 03:59:12;;;;;;;12.43;9.57;;;2.80;65.30;;;;;;5037142;28;20023;-77
2022/04/04 04:01:39;;;;;;;15.35;10.02;;;2.80;65.60;;;;;;5054597;28;20801;-76
2022/04/04 04:04:04;;;;;;;13.23;9.15;;;2.80;65.60;;;;;;5054653;28;20055;-77
2022/04/04 04:06:33;;;;;;;11.15;9.32;;;2.80;65.50;;;;;;5042775;28;20021;-76
2022/04/04 04:08:59;;;;;;;15.43;11.35;;;2.80;65.70;;;;;;5033041;28;20112;-76
2022/04/04 04:11:25;;;;;;;15.95;10.25;;;2.70;66.00;;;;;;5034482;28;20048;-76
2022/04/04 04:13:51;;;;;;;12.02;9.07;;;2.70;66.10;;;;;;5034129;28;20050;-77
2022/04/04 04:16:17;;;;;;;14.43;10.38;;;2.70;66.30;;;;;;5034447;28;20026;-76
2022/04/04 04:18:43;;;;;;;12.00;9.52;;;2.40;66.40;;;;;;5032897;28;20075;-77
2022/04/04 04:21:10;;;;;;;14.07;9.82;;;2.30;68.00;;;;;;5034503;28;20028;-76
2022/04/04 04:23:37;;;;;;;13.65;9.18;;;2.30;67.90;;;;;;5034070;28;20025;-77
2022/04/04 04:26:05;;;;;;;11.43;8.93;;;2.20;67.90;;;;;;5033025;28;20056;-77
2022/04/04 04:28:31;;;;;;;15.68;9.43;;;2.20;68.40;;;;;;5037464;28;20061;-76
2022/04/04 04:30:57;;;;;;;15.13;9.82;;;2.20;67.90;;;;;;5034125;28;20045;-77
2022/04/04 04:33:24;;;;;;;12.20;9.60;;;2.20;68.30;;;;;;5034308;28;20025;-76
2022/04/04 04:35:50;;;;;;;13.57;9.07;;;2.30;67.80;;;;;;5035961;28;20068;-76
2022/04/04 04:38:16;;;;;;;12.65;9.25;;;2.40;67.40;;;;;;5037846;28;20041;-76
2022/04/04 04:40:42;;;;;;;14.70;8.77;;;2.40;67.50;;;;;;5036514;28;20061;-76
2022/04/04 04:43:08;;;;;;;11.48;9.23;;;2.40;67.60;;;;;;5036494;28;20041;-76
2022/04/04 04:45:34;;;;;;;14.60;10.18;;;2.40;67.10;;;;;;5046488;28;20395;-77
2022/04/04 04:48:00;;;;;;;11.80;9.60;;;2.30;67.20;;;;;;5047557;28;20033;-76
2022/04/04 04:50:27;;;;;;;13.63;10.07;;;2.30;66.60;;;;;;5057695;28;20144;-74
2022/04/04 04:57:34;;;;;;;14.68;8.95;;;2.00;67.50;;;;;;5092466;28;20382;-75
2022/04/04 05:00:03;;;;;;;11.00;9.32;;;1.80;68.00;;;;;;5069227;28;20454;-75
2022/04/04 05:02:29;;;;;;;14.38;10.32;;;1.80;68.30;;;;;;5072487;28;20035;-76
2022/04/04 05:04:54;;;;;;;14.90;9.98;;;1.90;68.30;;;;;;5068509;28;20029;-76
2022/04/04 05:07:20;;;;;;;15.70;10.50;;;2.00;67.90;;;;;;5089581;28;20081;-76
2022/04/04 05:09:46;;;;;;;14.85;10.82;;;2.00;67.80;;;;;;5078083;28;20518;-76
2022/04/04 05:12:12;;;;;;;11.02;9.85;;;2.10;67.80;;;;;;5081539;28;20039;-77
2022/04/04 05:14:40;;;;;;;19.27;11.43;;;2.20;67.60;;;;;;5068669;28;20035;-79
2022/04/04 05:17:06;;;;;;;14.63;11.93;;;2.00;68.10;;;;;;5069633;28;20029;-83
2022/04/04 05:19:32;;;;;;;17.02;10.88;;;2.20;67.60;;;;;;5072629;28;20531;-80
2022/04/04 05:21:58;;;;;;;13.65;10.20;;;2.10;67.80;;;;;;5082416;28;20024;-77
2022/04/04 05:24:23;;;;;;;14.55;9.57;;;2.10;68.00;;;;;;5067857;28;20033;-77
2022/04/04 05:26:49;;;;;;;13.90;10.25;;;2.20;67.50;;;;;;5066386;28;20457;-78
2022/04/04 05:29:17;;;;;;;13.02;10.30;;;2.20;67.50;;;;;;5062725;28;20029;-76
2022/04/04 05:31:45;;;;;;;13.70;9.68;;;2.20;67.40;;;;;;5071315;28;20509;-77
2022/04/04 05:34:10;;;;;;;16.02;10.05;;;2.20;67.30;;;;;;5052495;28;20041;-76
2022/04/04 05:36:36;;;;;;;13.07;9.43;;;2.20;67.40;;;;;;5072897;28;20772;-76
2022/04/04 05:39:03;;;;;;;13.68;10.43;;;2.20;67.20;;;;;;5091625;28;20066;-76
2022/04/04 05:41:29;;;;;;;15.18;10.20;;;2.10;67.70;;;;;;5091070;28;20013;-76
2022/04/04 05:43:56;;;;;;;12.70;9.65;;;2.20;67.30;;;;;;5070607;28;20051;-76
2022/04/04 05:46:22;;;;;;;14.50;9.82;;;2.20;67.30;;;;;;5076007;28;20383;-77
2022/04/04 05:48:48;;;;;;;12.80;9.55;;;2.20;67.30;;;;;;5091486;28;20027;-77
2022/04/04 05:51:15;;;;;;;14.23;9.55;;;2.20;67.50;;;;;;5090364;28;20032;-76
2022/04/04 05:53:41;;;;;;;13.23;9.63;;;2.20;67.30;;;;;;5091039;28;20032;-76
2022/04/04 05:56:06;;;;;;;11.45;8.52;;;2.30;67.20;;;;;;5089682;28;20039;-76
2022/04/04 05:58:32;;;;;;;15.35;10.02;;;2.30;67.40;;;;;;5089532;28;20024;-77
2022/04/04 06:00:58;;;;;;;12.55;9.90;;;2.30;67.40;;;;;;5090739;28;20024;-77
2022/04/04 06:03:24;;;;;;;13.70;9.40;;;2.30;67.70;;;;;;5102870;28;20517;-76
2022/04/04 06:05:50;;;;;;;10.45;9.30;;;2.30;67.70;;;;;;5080995;28;20024;-76
2022/04/04 06:08:17;;;;;;;13.95;9.52;;;2.30;68.10;;;;;;5080307;28;20035;-76
2022/04/04 06:10:45;;;;;;;11.95;8.75;;;2.40;66.80;;;;;;5076814;28;20044;-77
2022/04/04 06:13:18;;;;;;;13.50;10.93;;;2.40;67.00;;;;;;5058265;28;20032;-76
2022/04/04 06:15:44;;;;;;;14.48;9.02;;;2.40;66.70;;;;;;5077291;28;20103;-76
2022/04/04 06:18:11;;;;;;;14.15;9.52;;;2.40;67.20;;;;;;5050872;28;20068;-77
2022/04/04 06:20:38;;;;;;;12.68;9.38;;;2.30;67.70;;;;;;5057088;28;20443;-76
2022/04/04 06:23:04;;;;;;;18.10;11.05;;;2.30;67.70;;;;;;5057195;28;20032;-76
2022/04/04 06:25:30;;;;;;;16.58;11.18;;;2.20;67.80;;;;;;5056936;28;20029;-76
2022/04/04 06:27:56;;;;;;;14.35;11.05;;;2.20;68.50;;;;;;5065494;28;20028;-76
2022/04/04 06:30:22;;;;;;;17.85;11.43;;;2.30;68.50;;;;;;5076013;28;20032;-76
2022/04/04 06:32:48;;;;;;;17.15;11.07;;;2.30;68.00;;;;;;5076438;28;20024;-77
2022/04/04 06:35:15;;;;;;;16.15;10.45;;;2.40;68.00;;;;;;5073695;28;20524;-76
2022/04/04 06:37:45;;;;;;;13.98;10.90;;;2.50;67.50;;;;;;5073654;28;20499;-76
2022/04/04 06:40:12;;;;;;;14.52;10.45;;;2.60;67.50;;;;;;5076037;28;20028;-77
2022/04/04 06:42:40;;;;;;;12.02;9.35;;;2.70;67.90;;;;;;5077020;28;20039;-76
2022/04/04 06:45:07;;;;;;;13.45;10.13;;;2.90;66.90;;;;;;5076901;28;20017;-76
2022/04/04 06:47:34;;;;;;;13.02;9.50;;;3.00;66.50;;;;;;5053463;28;20033;-77
2022/04/04 06:50:00;;;;;;;12.50;8.90;;;3.20;66.40;;;;;;5076471;28;20495;-76
2022/04/04 06:52:26;;;;;;;13.68;10.27;;;3.20;66.10;;;;;;5076917;28;20036;-77
2022/04/04 06:54:53;;;;;;;12.98;9.25;;;3.20;66.70;;;;;;5058515;28;20569;-76
2022/04/04 06:57:19;;;;;;;16.02;10.40;;;3.20;67.00;;;;;;5038834;28;20045;-76
2022/04/04 06:59:46;;;;;;;14.02;10.38;;;3.30;67.00;;;;;;5064545;28;20021;-77
2022/04/04 07:02:11;;;;;;;10.68;9.45;;;3.40;66.40;;;;;;5056959;28;20028;-76
2022/04/04 07:04:37;;;;;;;14.20;10.35;;;3.40;66.60;;;;;;5076275;28;20442;-77
2022/04/04 07:07:06;;;;;;;14.10;9.40;;;3.60;66.30;;;;;;5046069;28;20039;-76
2022/04/04 07:09:32;;;;;;;17.15;9.60;;;3.80;65.70;;;;;;5056301;28;20063;-74
2022/04/04 07:11:58;;;;;;;14.82;10.00;;;4.10;65.00;;;;;;5038442;28;20033;-76
2022/04/04 07:14:24;;;;;;;13.20;9.13;;;4.20;64.10;;;;;;5056577;28;20033;-77
2022/04/04 07:16:53;;;;;;;12.50;8.68;;;4.60;63.70;;;;;;5044851;28;20097;-76
2022/04/04 07:19:23;;;;;;;12.50;9.00;;;5.40;61.90;;;;;;5055422;28;20021;-77
2022/04/04 07:21:52;;;;;;;12.30;8.63;;;6.10;59.20;;;;;;5056562;28;20028;-77
2022/04/04 07:24:19;;;;;;;13.63;9.32;;;6.50;58.20;;;;;;5056043;28;20036;-77
2022/04/04 07:26:48;;;;;;;13.05;9.25;;;6.80;58.10;;;;;;5067812;28;20028;-74
2022/04/04 07:29:14;;;;;;;11.77;8.77;;;7.20;56.90;;;;;;5057847;28;20028;-74
2022/04/04 07:31:40;;;;;;;11.70;8.65;;;7.30;56.30;;;;;;5073025;28;20031;-74
2022/04/04 07:34:05;;;;;;;11.18;8.23;;;7.70;56.00;;;;;;5055994;28;20104;-75
2022/04/04 07:36:31;;;;;;;13.27;9.30;;;8.30;55.40;;;;;;5055915;28;20025;-74
2022/04/04 07:38:57;;;;;;;10.52;7.97;;;9.00;53.40;;;;;;5083633;28;20038;-74
2022/04/04 07:41:22;;;;;;;10.30;8.50;;;9.40;52.10;;;;;;5095850;28;20031;-74
2022/04/04 07:43:48;;;;;;;13.23;8.20;;;9.90;50.90;;;;;;5076627;28;20062;-74
2022/04/04 07:46:14;;;;;;;9.98;7.78;;;10.70;49.90;;;;;;5075433;28;20052;-74
2022/04/04 07:48:42;;;;;;;7.57;6.88;;;10.70;49.30;;;;;;5057697;28;20406;-75
2022/04/04 07:51:08;;;;;;;7.85;6.68;;;10.20;50.70;;;;;;5057761;28;20036;-74
2022/04/04 07:53:35;;;;;;;10.98;7.55;;;9.90;50.80;;;;;;5061369;28;20093;-75
2022/04/04 07:56:00;;;;;;;7.97;7.00;;;9.80;51.80;;;;;;5055568;28;20116;-74
2022/04/04 07:58:26;;;;;;;9.60;7.50;;;9.70;51.70;;;;;;5055478;28;20077;-74
2022/04/04 08:00:52;;;;;;;8.52;7.47;;;10.10;51.50;;;;;;5072430;28;20031;-74
2022/04/04 08:03:19;;;;;;;11.15;6.97;;;10.60;50.50;;;;;;5075727;28;20103;-75
2022/04/04 08:05:45;;;;;;;7.60;6.13;;;11.60;48.40;;;;;;5057537;28;20028;-75
2022/04/04 08:08:11;;;;;;;7.32;5.80;;;13.30;45.00;;;;;;5074055;28;20021;-75
2022/04/04 08:10:37;;;;;;;12.10;5.38;;;14.60;43.20;;;;;;5075110;28;20549;-75
2022/04/04 08:13:03;;;;;;;6.68;4.85;;;16.50;38.30;;;;;;5056789;28;20033;-75
2022/04/04 08:15:28;;;;;;;5.63;3.47;;;16.00;36.50;;;;;;5072523;28;20119;-75
2022/04/04 08:17:54;;;;;;;9.25;3.40;;;16.10;36.30;;;;;;5075181;28;20035;-75
2022/04/04 08:20:21;;;;;;;5.57;3.65;;;17.00;33.50;;;;;;5073822;28;20027;-75
2022/04/04 08:22:47;;;;;;;4.43;3.50;;;18.70;32.90;;;;;;5075025;28;20078;-75
2022/04/04 08:25:14;;;;;;;4.00;2.58;;;20.00;30.80;;;;;;5075139;28;20047;-75
2022/04/04 08:27:41;;;;;;;3.28;2.30;;;21.30;26.90;;;;;;5063939;28;20033;-75
2022/04/04 08:30:10;;;;;;;3.72;2.25;;;22.00;25.80;;;;;;5054857;28;20039;-75
2022/04/04 08:32:39;;;;;;;2.88;1.98;;;20.90;26.50;;;;;;5038018;28;20025;-75
2022/04/04 08:35:10;;;;;;;3.55;2.08;;;20.40;28.00;;;;;;5054789;28;20031;-75
2022/04/04 08:37:37;;;;;;;4.18;2.22;;;20.00;27.60;;;;;;5058584;28;20033;-75
2022/04/04 08:40:05;;;;;;;4.28;2.83;;;19.30;27.90;;;;;;5036617;28;20428;-75
2022/04/04 08:42:31;;;;;;;4.63;2.42;;;18.30;29.20;;;;;;5055427;28;20039;-75
2022/04/04 08:44:58;;;;;;;6.25;3.10;;;17.90;30.50;;;;;;5054823;28;20021;-75
2022/04/04 08:47:25;;;;;;;5.10;2.85;;;17.40;30.60;;;;;;5060447;28;20115;-75
2022/04/04 08:49:54;;;;;;;4.95;2.88;;;16.40;32.60;;;;;;5074844;28;20024;-75
2022/04/04 08:52:21;;;;;;;4.65;3.08;;;15.70;34.10;;;;;;5074654;28;20134;-75
2022/04/04 08:54:47;;;;;;;4.00;2.97;;;15.00;34.70;;;;;;5056343;28;20033;-75
2022/04/04 08:57:13;;;;;;;5.22;2.80;;;14.40;35.80;;;;;;5071653;28;20465;-75
2022/04/04 08:59:39;;;;;;;5.35;2.72;;;13.80;36.50;;;;;;5073324;28;20021;-75
2022/04/04 09:02:05;;;;;;;8.52;3.38;;;13.30;37.70;;;;;;5054565;28;20029;-75
2022/04/04 09:04:33;;;;;;;2.97;2.60;;;13.30;38.80;;;;;;5054945;28;20495;-75
2022/04/04 09:07:05;;;;;;;6.65;3.15;;;12.90;38.90;;;;;;5063824;28;20029;-75
2022/04/04 09:09:50;;;;;;;5.05;3.50;;;13.00;39.30;;;;;;5054817;28;20025;-75
2022/04/04 09:12:18;;;;;;;6.78;3.47;;;13.40;39.20;;;;;;5050247;28;20032;-75
2022/04/04 09:14:58;;;;;;;5.32;2.78;;;14.00;38.30;;;;;;5056163;28;20162;-75
2022/04/04 09:17:27;;;;;;;3.47;2.97;;;15.10;36.80;;;;;;5074547;28;20055;-75
2022/04/04 09:19:53;;;;;;;5.38;3.30;;;15.80;35.90;;;;;;5074811;28;20023;-75
2022/04/04 09:22:22;;;;;;;2.88;2.35;;;16.90;34.10;;;;;;5048091;28;20514;-75
2022/04/04 09:24:49;;;;;;;3.92;2.88;;;17.50;33.80;;;;;;5056646;28;20487;-75
2022/04/04 09:27:36;;;;;;;4.40;2.80;;;17.60;32.50;;;;;;5074330;28;20123;-75
2022/04/04 09:30:05;;;;;;;4.65;3.35;;;16.80;33.60;;;;;;5072973;28;20483;-75
2022/04/04 09:32:42;;;;;;;7.63;3.45;;;16.20;35.60;;;;;;5073775;28;20455;-75
2022/04/04 09:35:13;;;;;;;5.07;3.38;;;15.60;35.30;;;;;;5055980;28;20029;-75
2022/04/04 09:37:40;;;;;;;8.65;4.30;;;15.20;36.10;;;;;;5055799;28;20020;-75
2022/04/04 09:40:15;;;;;;;6.22;4.30;;;14.80;37.80;;;;;;5061330;28;20021;-75
2022/04/04 09:42:59;;;;;;;4.88;3.67;;;14.60;37.60;;;;;;5055475;28;20032;-75
2022/04/04 09:45:30;;;;;;;5.47;4.03;;;14.40;38.00;;;;;;5057930;28;20029;-75
2022/04/04 09:47:58;;;;;;;5.35;4.00;;;14.40;39.20;;;;;;5053379;28;20031;-75
2022/04/04 09:50:30;;;;;;;6.20;3.65;;;14.20;39.50;;;;;;5061112;28;20111;-75
2022/04/04 09:52:59;;;;;;;6.43;4.18;;;14.40;39.80;;;;;;5058217;28;20452;-75
2022/04/04 09:55:34;;;;;;;9.00;4.82;;;14.60;38.20;;;;;;5057855;28;20469;-75
2022/04/04 09:58:02;;;;;;;7.43;4.10;;;14.40;39.50;;;;;;5058599;28;20102;-75
2022/04/04 10:00:28;;;;;;;6.25;4.65;;;14.30;39.90;;;;;;5088412;28;20036;-75
2022/04/04 10:02:57;;;;;;;6.95;4.35;;;14.20;40.00;;;;;;5085721;28;20077;-75
2022/04/04 10:05:26;;;;;;;5.75;4.30;;;14.50;40.50;;;;;;5077743;28;20514;-75
2022/04/04 10:07:58;;;;;;;8.82;3.83;;;14.70;38.70;;;;;;5059166;28;20502;-75
2022/04/04 10:10:26;;;;;;;8.75;4.18;;;15.20;39.10;;;;;;5077797;28;20033;-75
2022/04/04 10:12:52;;;;;;;4.97;3.65;;;15.60;38.30;;;;;;5056167;28;20031;-75
2022/04/04 10:15:20;;;;;;;4.18;3.33;;;15.60;37.50;;;;;;5056205;28;20124;-75
2022/04/04 10:17:46;;;;;;;6.43;3.38;;;15.80;37.70;;;;;;5072048;28;20569;-75
2022/04/04 10:20:12;;;;;;;5.32;3.22;;;15.50;37.90;;;;;;5077464;28;20025;-75
2022/04/04 10:22:39;;;;;;;6.35;3.03;;;15.40;37.70;;;;;;5077389;28;20013;-77
2022/04/04 10:25:07;;;;;;;5.50;2.97;;;15.20;37.90;;;;;;5065156;28;20032;-75
2022/04/04 10:27:35;;;;;;;5.65;3.22;;;14.90;37.80;;;;;;5044077;28;20078;-75
2022/04/04 10:30:10;;;;;;;5.45;3.58;;;14.90;38.20;;;;;;5077275;28;20032;-75
2022/04/04 10:32:52;;;;;;;7.45;4.25;;;15.00;38.90;;;;;;5060565;28;20032;-75
2022/04/04 10:35:26;;;;;;;5.45;3.95;;;15.20;37.40;;;;;;5057217;28;20032;-75
2022/04/04 10:37:52;;;;;;;7.18;4.40;;;15.30;37.50;;;;;;5057115;28;20017;-75
2022/04/04 10:40:27;;;;;;;6.22;3.72;;;15.30;36.40;;;;;;5056932;28;20546;-75
2022/04/04 10:43:08;;;;;;;5.35;4.30;;;15.00;37.20;;;;;;5056386;28;20100;-75
2022/04/04 10:46:10;;;;;;;6.90;3.97;;;14.80;37.00;;;;;;5064774;28;20043;-75
2022/04/04 10:48:41;;;;;;;6.13;3.90;;;14.80;36.30;;;;;;4994837;28;20026;-75
2022/04/04 10:51:18;;;;;;;6.32;3.75;;;14.80;36.80;;;;;;5063140;28;20439;-75
2022/04/04 10:53:46;;;;;;;4.20;3.65;;;14.80;36.60;;;;;;5075477;28;20035;-75
2022/04/04 10:56:18;;;;;;;6.05;4.25;;;15.00;37.20;;;;;;5058634;28;20144;-77
2022/04/04 10:58:44;;;;;;;4.93;3.50;;;15.20;35.20;;;;;;5045194;28;20100;-77
2022/04/04 11:01:17;;;;;;;5.95;3.40;;;15.10;35.50;;;;;;5058473;28;20115;-78
2022/04/04 11:03:48;;;;;;;6.05;3.35;;;15.30;35.70;;;;;;5054232;28;20040;-79
2022/04/04 11:09:12;;;;;;;7.13;3.40;;;15.60;33.80;;;;;;5057145;28;20123;-84
2022/04/04 11:11:54;;;;;;;4.78;3.03;;;15.60;33.30;;;;;;5064772;28;20475;-84
2022/04/04 11:14:34;;;;;;;4.75;3.30;;;15.60;33.90;;;;;;5071222;28;20505;-87
2022/04/04 11:17:06;;;;;;;5.78;3.47;;;15.70;32.90;;;;;;5069447;28;20066;-83
2022/04/04 11:19:51;;;;;;;4.60;3.40;;;15.70;33.20;;;;;;5074653;28;20025;-79
2022/04/04 11:22:22;;;;;;;4.22;3.05;;;15.70;32.50;;;;;;5038348;28;20033;-76
2022/04/04 11:25:06;;;;;;;4.82;3.00;;;15.80;33.80;;;;;;5056445;28;20113;-80
2022/04/04 11:27:36;;;;;;;5.28;3.20;;;15.80;34.50;;;;;;5075335;28;20028;-77
2022/04/04 11:30:10;;;;;;;5.32;2.95;;;16.00;33.50;;;;;;5064269;28;20031;-76
2022/04/04 11:32:40;;;;;;;4.78;2.97;;;16.10;33.70;;;;;;5066138;28;20036;-76
2022/04/04 11:35:11;;;;;;;4.30;2.85;;;16.30;33.20;;;;;;5057038;28;20021;-77
2022/04/04 11:37:42;;;;;;;5.47;3.20;;;16.30;31.60;;;;;;5075998;28;20445;-75
2022/04/04 11:40:13;;;;;;;4.45;3.10;;;16.40;32.40;;;;;;5075552;28;20032;-75
2022/04/04 11:42:44;;;;;;;4.63;2.80;;;16.30;32.70;;;;;;5056024;28;20093;-76
2022/04/04 11:45:14;;;;;;;4.45;3.08;;;16.30;32.30;;;;;;5055674;28;20033;-76
2022/04/04 11:47:41;;;;;;;;;;;16.20;33.10;;;;;;5076044;28;20067;-76
2022/04/04 11:50:08;;;;;;;5.75;3.17;;;16.00;33.00;;;;;;5075682;28;19963;-76
2022/04/04 11:52:51;;;;;;;5.10;3.47;;;16.00;32.80;;;;;;5075544;28;20070;-76
2022/04/04 11:55:19;;;;;;;5.15;2.65;;;15.80;32.30;;;;;;5068019;28;20017;-76
2022/04/04 11:57:49;;;;;;;3.47;3.17;;;15.80;33.80;;;;;;5055593;28;20059;-76
2022/04/04 12:00:20;;;;;;;6.47;3.25;;;15.70;32.50;;;;;;5083029;28;20394;-76
2022/04/04 12:02:47;;;;;;;5.15;3.03;;;15.60;33.40;;;;;;5082031;28;20155;-76
2022/04/04 12:05:14;;;;;;;3.47;2.88;;;15.50;33.30;;;;;;5075078;28;20048;-76
2022/04/04 12:07:41;;;;;;;5.68;3.67;;;15.30;35.10;;;;;;5063555;28;20037;-76
2022/04/04 12:10:08;;;;;;;4.20;3.22;;;15.30;34.60;;;;;;5037192;28;20048;-75
2022/04/04 12:12:34;;;;;;;6.28;3.45;;;15.30;34.80;;;;;;5067309;28;20025;-76
2022/04/04 12:14:59;;;;;;;3.72;2.83;;;15.30;35.00;;;;;;5055344;28;20059;-76
2022/04/04 12:17:25;;;;;;;5.13;2.90;;;15.40;34.80;;;;;;5055350;28;20094;-76
2022/04/04 12:19:52;;;;;;;4.13;2.92;;;15.50;34.80;;;;;;5059386;28;20099;-75
2022/04/04 12:25:11;;;;;;;4.68;3.45;;;15.60;35.20;;;;;;5074981;28;20074;-75
2022/04/04 12:27:55;;;;;;;6.03;3.13;;;15.40;35.70;;;;;;5067263;28;20033;-75
2022/04/04 12:30:32;;;;;;;5.00;2.80;;;15.10;35.60;;;;;;5055025;28;20480;-75
2022/04/04 12:33:11;;;;;;;4.78;3.22;;;15.10;35.50;;;;;;5051519;28;20033;-75
2022/04/04 12:35:48;;;;;;;4.63;3.22;;;14.90;36.60;;;;;;5054680;28;20060;-75
2022/04/04 12:38:28;;;;;;;5.35;3.00;;;14.80;36.40;;;;;;5054569;28;20103;-75
2022/04/04 12:41:08;;;;;;;5.13;3.40;;;14.60;37.10;;;;;;5057293;28;20025;-75
2022/04/04 12:43:36;;;;;;;5.20;3.75;;;14.60;37.40;;;;;;5074637;28;20028;-75
2022/04/04 12:46:03;;;;;;;3.85;2.92;;;14.70;37.20;;;;;;5075089;28;20025;-72
2022/04/04 12:48:40;;;;;;;5.05;3.65;;;14.80;38.30;;;;;;5075006;28;20031;-72
2022/04/04 12:51:07;;;;;;;7.15;4.45;;;14.80;38.20;;;;;;5055403;28;20021;-72
2022/04/04 12:53:53;;;;;;;5.28;3.53;;;14.70;38.70;;;;;;5055011;28;20064;-72
2022/04/04 12:56:19;;;;;;;4.43;3.40;;;14.50;38.80;;;;;;5060262;28;20191;-72
2022/04/04 12:59:04;;;;;;;5.78;3.50;;;14.50;39.20;;;;;;5080623;28;20107;-72
2022/04/04 13:01:30;;;;;;;5.40;3.42;;;14.60;39.70;;;;;;5091161;28;20028;-73
2022/04/04 13:03:56;;;;;;;4.03;3.10;;;14.80;39.00;;;;;;5086280;28;20071;-73